createdAt,value
2023-05-12T11:18:20.590Z,39.2631
2023-05-12T11:19:22.366Z,39.9250
2023-05-12T11:20:24.322Z,40.9864
2023-05-12T11:21:26.224Z,41.1995
2023-05-12T11:22:28.253Z,40.6820
2023-05-12T11:46:50.653Z,46.9567
2023-05-12T11:47:52.566Z,46.8182
2023-05-12T11:48:54.447Z,46.1015
2023-05-12T11:49:56.424Z,45.2013
2023-05-12T11:50:58.289Z,44.4946
2023-05-12T11:52:00.190Z,43.6982
2023-05-12T11:53:02.129Z,43.0087
2023-05-12T11:54:04.041Z,42.5078
2023-05-12T11:55:06.189Z,42.0448
2023-05-12T11:56:07.897Z,41.5845
2023-05-12T11:57:09.800Z,41.1901
2023-05-12T11:58:11.725Z,40.7961
2023-05-12T11:59:13.655Z,40.6230
2023-05-12T12:00:15.574Z,40.4623
2023-05-12T12:01:17.600Z,40.1804
2023-05-12T12:02:19.466Z,39.9881
2023-05-12T12:03:21.481Z,40.1897
2023-05-12T12:04:23.285Z,40.0482
2023-05-12T12:05:25.177Z,39.8962
2023-05-12T12:06:27.159Z,39.7543
2023-05-12T12:07:29.000Z,39.7365
2023-05-12T12:08:30.941Z,39.4810
2023-05-12T12:09:32.850Z,39.3549
2023-05-12T12:10:34.751Z,39.3788
2023-05-12T12:11:36.667Z,39.2847
2023-05-12T12:12:38.752Z,39.2221
2023-05-12T12:13:40.506Z,39.2187
2023-05-12T12:14:42.467Z,39.2129
2023-05-12T12:15:44.376Z,39.2581
2023-05-12T12:16:46.270Z,39.2339
2023-05-12T12:17:48.475Z,39.0584
2023-05-12T12:18:50.139Z,38.9541
2023-05-12T12:19:52.020Z,38.9726
2023-05-12T12:20:53.951Z,38.9437
2023-05-12T12:21:55.866Z,38.9164
2023-05-12T12:22:57.782Z,38.8222
2023-05-12T12:23:59.808Z,38.6877
2023-05-12T12:25:01.605Z,38.7935
2023-05-12T12:26:03.544Z,38.8100
2023-05-12T12:27:05.454Z,38.9940
2023-05-12T12:28:07.369Z,38.9600
2023-05-12T12:29:09.291Z,38.8686
2023-05-12T12:30:11.433Z,38.9931
2023-05-12T12:31:13.113Z,39.1130
2023-05-12T12:32:15.056Z,39.0510
2023-05-12T12:33:19.649Z,38.7328
2023-05-12T12:34:18.868Z,38.6238
2023-05-12T12:35:21.019Z,38.4188
2023-05-12T12:36:22.846Z,38.4129
2023-05-12T12:37:24.634Z,38.3377
2023-05-12T12:38:26.546Z,38.1996
2023-05-12T12:39:28.480Z,38.2532
2023-05-12T12:40:30.392Z,38.1250
2023-05-12T12:41:32.305Z,38.0022
2023-05-12T12:42:34.369Z,37.9311
2023-05-12T12:43:36.144Z,37.8526
2023-05-12T12:44:38.064Z,37.9227
2023-05-12T12:45:39.996Z,37.8667
2023-05-12T12:46:41.957Z,37.9394
2023-05-12T12:47:43.869Z,38.0031
2023-05-12T12:48:45.860Z,37.8620
2023-05-12T12:49:47.665Z,37.7731
2023-05-12T12:50:49.592Z,37.6350
2023-05-12T12:51:51.510Z,37.5954
2023-05-12T12:52:53.440Z,37.7737
2023-05-12T12:53:55.349Z,37.7261
2023-05-12T12:54:57.365Z,37.6553
2023-05-12T12:55:59.173Z,37.4905
2023-05-12T12:57:01.105Z,37.3985
2023-05-12T12:58:03.011Z,37.3710
2023-05-12T12:59:04.947Z,37.3219
2023-05-12T13:00:06.970Z,37.4467
2023-05-12T13:01:08.808Z,37.4009
2023-05-12T13:02:10.723Z,37.4012
2023-05-12T13:03:12.638Z,37.4391
2023-05-12T13:04:14.519Z,37.5588
2023-05-12T13:05:16.515Z,37.4752
2023-05-12T13:06:18.474Z,38.0885
2023-05-12T13:07:20.275Z,38.0529
2023-05-12T13:08:22.204Z,37.9487
2023-05-12T13:09:24.122Z,37.5140
2023-05-12T13:10:26.048Z,37.5036
2023-05-12T13:11:28.068Z,37.3404
2023-05-12T13:12:29.873Z,37.3524
2023-05-12T13:13:31.781Z,37.3315
2023-05-12T13:14:33.706Z,37.3270
2023-05-12T13:15:35.621Z,37.3688
2023-05-12T13:16:37.557Z,37.2814
2023-05-12T13:17:39.588Z,37.1569
2023-05-12T13:18:41.425Z,37.1035
2023-05-12T13:19:43.302Z,37.1226
2023-05-12T13:20:45.233Z,37.0493
2023-05-12T13:21:47.137Z,37.0720
2023-05-12T13:22:49.062Z,37.1547
2023-05-12T13:23:51.127Z,37.0407
2023-05-12T13:24:52.899Z,36.9505
2023-05-12T13:25:54.800Z,36.9640
2023-05-12T13:26:56.745Z,36.9849
2023-05-12T13:27:58.640Z,36.9872
2023-05-12T13:29:00.567Z,37.5557
2023-05-12T13:30:02.597Z,37.0913
2023-05-12T13:31:04.438Z,37.0072
2023-05-12T13:32:06.323Z,37.1351
2023-05-12T13:33:08.307Z,37.2651
2023-05-12T13:34:10.169Z,37.2459
2023-05-12T13:35:12.071Z,37.2171
2023-05-12T13:36:14.104Z,37.2146
2023-05-12T13:37:15.922Z,37.0845
2023-05-12T13:38:17.831Z,37.1433
2023-05-12T13:39:19.911Z,37.1667
2023-05-12T13:40:21.659Z,37.4725
2023-05-12T13:41:23.626Z,37.7986
2023-05-12T13:42:25.608Z,37.7241
2023-05-12T13:43:27.431Z,37.6669
2023-05-12T13:44:29.332Z,37.4610
2023-05-12T13:45:31.270Z,37.3036
2023-05-12T13:46:33.225Z,37.3508
2023-05-12T13:47:35.137Z,37.2994
2023-05-12T13:48:37.159Z,37.4983
2023-05-12T13:49:38.929Z,37.4483
2023-05-12T13:50:40.859Z,37.3129
2023-05-12T13:51:42.768Z,37.1333
2023-05-12T13:52:44.669Z,36.9333
2023-05-12T13:53:46.607Z,36.8927
2023-05-12T13:54:48.625Z,36.8974
2023-05-12T13:55:50.500Z,37.2535
2023-05-12T13:56:52.335Z,37.1733
2023-05-12T13:57:54.250Z,37.1101
2023-05-12T13:58:56.191Z,36.9494
2023-05-12T13:59:58.219Z,36.9599
2023-05-12T14:01:00.007Z,36.8286
2023-05-12T14:02:02.099Z,36.7120
2023-05-12T14:03:03.904Z,36.7616
2023-05-12T14:04:05.781Z,36.7684
2023-05-12T14:05:07.797Z,36.7664
2023-05-12T14:06:09.731Z,36.9131
2023-05-12T14:07:11.525Z,36.8203
2023-05-12T14:08:13.426Z,36.7896
2023-05-12T14:09:15.372Z,36.7118
2023-05-12T14:10:17.272Z,36.6170
2023-05-12T14:11:19.266Z,36.8088
2023-05-12T14:12:21.739Z,36.6231
2023-05-12T14:13:23.021Z,36.6425
2023-05-12T14:14:24.962Z,36.8597
2023-05-12T14:15:40.103Z,36.8747
2023-05-12T14:16:28.804Z,36.7197
2023-05-12T14:17:30.863Z,36.6375
2023-05-12T14:18:32.661Z,36.5344
2023-05-12T14:19:34.547Z,36.8944
2023-05-12T14:20:36.451Z,36.9280
2023-05-12T14:21:38.392Z,37.0730
2023-05-12T14:22:40.307Z,37.3877
2023-05-12T14:23:42.335Z,37.3253
2023-05-12T14:24:44.127Z,37.3737
2023-05-12T14:25:46.070Z,37.2961
2023-05-12T14:26:48.048Z,37.3028
2023-05-12T14:27:50.123Z,37.1579
2023-05-12T14:28:51.820Z,37.1624
2023-05-12T14:29:53.898Z,36.9213
2023-05-12T14:30:55.673Z,37.0392
2023-05-12T14:31:57.638Z,36.8981
2023-05-12T14:32:59.528Z,36.8788
2023-05-12T14:34:01.436Z,36.8179
2023-05-12T14:35:03.335Z,36.8004
2023-05-12T14:36:07.831Z,36.9748
2023-05-12T14:37:07.283Z,37.1829
2023-05-12T14:38:09.106Z,37.2906
2023-05-12T14:39:11.028Z,37.5811
2023-05-12T14:40:12.924Z,37.6148
2023-05-12T14:41:14.858Z,37.7221
2023-05-12T14:42:16.870Z,37.7819
2023-05-12T14:43:18.700Z,37.8745
2023-05-12T14:44:20.625Z,38.2431
2023-05-12T14:45:22.848Z,38.2031
2023-05-12T14:46:24.472Z,38.3478
2023-05-12T14:47:26.383Z,38.5160
2023-05-12T14:48:28.385Z,38.5530
2023-05-12T14:49:30.241Z,38.4178
2023-05-12T14:50:32.135Z,38.2938
2023-05-12T14:51:34.042Z,38.3886
2023-05-12T14:52:35.956Z,38.4475
2023-05-12T14:53:37.976Z,38.4828
2023-05-12T14:54:39.812Z,38.5598
2023-05-12T14:55:41.728Z,38.4754
2023-05-12T14:56:43.671Z,38.5769
2023-05-12T14:57:45.552Z,38.5918
2023-05-12T14:58:47.474Z,38.5529
2023-05-12T14:59:49.503Z,38.5640
2023-05-12T15:00:51.354Z,38.5860
2023-05-12T15:01:53.247Z,38.5789
2023-05-12T15:02:55.233Z,38.7371
2023-05-12T15:03:57.068Z,38.7385
2023-05-12T15:04:59.097Z,38.7630
2023-05-12T15:07:02.845Z,38.8502
2023-05-12T15:08:04.761Z,38.8147
2023-05-12T15:09:06.681Z,38.7694
2023-05-12T15:10:08.599Z,38.6856
2023-05-12T15:11:10.605Z,38.6944
2023-05-12T15:12:12.467Z,38.6166
2023-05-12T15:13:14.365Z,38.4987
2023-05-12T15:14:16.291Z,38.4006
2023-05-12T15:15:18.355Z,38.3280
2023-05-12T15:16:20.265Z,38.3523
2023-05-12T15:17:22.057Z,38.3369
2023-05-12T15:18:24.058Z,38.3321
2023-05-12T15:19:25.904Z,38.2236
2023-05-12T15:20:27.814Z,38.0981
2023-05-12T15:21:29.744Z,38.0816
2023-05-12T15:22:31.669Z,37.9655
2023-05-12T15:23:33.576Z,38.0396
2023-05-12T15:24:35.482Z,38.1858
2023-05-12T15:25:37.409Z,38.0319
2023-05-12T15:26:40.249Z,38.0075
2023-05-12T15:27:41.254Z,37.9840
2023-05-12T15:28:43.178Z,37.9704
2023-05-12T15:29:45.079Z,37.8639
2023-05-12T15:30:47.025Z,37.9463
2023-05-12T15:31:49.028Z,37.8382
2023-05-12T15:32:50.881Z,38.0905
2023-05-12T15:33:52.794Z,38.2525
2023-05-12T15:34:54.762Z,38.3958
2023-05-12T15:35:56.604Z,38.2817
2023-05-12T15:36:58.541Z,38.1724
2023-05-12T15:38:00.466Z,38.0675
2023-05-12T15:39:02.427Z,38.0816
2023-05-12T15:40:04.313Z,38.2492
2023-05-12T15:41:06.216Z,38.2551
2023-05-12T15:42:08.539Z,38.0900
2023-05-12T15:43:10.054Z,38.0768
2023-05-12T15:44:11.969Z,38.0981
2023-05-12T15:45:13.899Z,38.2020
2023-05-12T15:46:15.835Z,38.1425
2023-05-12T15:47:17.721Z,38.2974
2023-05-12T15:48:19.691Z,38.4482
2023-05-12T15:49:21.639Z,38.5321
2023-05-12T15:50:23.550Z,38.5738
2023-05-12T15:51:25.485Z,38.7733
2023-05-12T15:52:27.405Z,38.6992
2023-05-12T15:53:29.322Z,38.7231
2023-05-12T15:54:31.264Z,38.6631
2023-05-12T15:55:33.169Z,38.5286
2023-05-12T15:56:35.087Z,38.5779
2023-05-12T15:57:36.998Z,38.7160
2023-05-12T15:58:38.933Z,38.6995
2023-05-12T15:59:40.859Z,38.7255
2023-05-12T16:00:42.795Z,38.5603
2023-05-12T16:01:44.683Z,38.5986
2023-05-12T16:02:46.670Z,38.7585
2023-05-12T16:03:48.575Z,38.8806
2023-05-12T16:04:50.462Z,38.8506
2023-05-12T16:05:52.361Z,38.9251
2023-05-12T16:06:54.359Z,39.1130
2023-05-12T16:07:56.188Z,39.1038
2023-05-12T16:08:58.125Z,39.0789
2023-05-12T16:10:00.065Z,38.9218
2023-05-12T16:11:01.990Z,38.8943
2023-05-12T16:12:03.888Z,38.9949
2023-05-12T16:13:05.789Z,39.1164
2023-05-12T16:14:07.711Z,39.0056
2023-05-12T16:15:09.659Z,38.9580
2023-05-12T16:16:11.572Z,38.9764
2023-05-12T16:17:13.491Z,39.0691
2023-05-12T16:18:15.450Z,39.2252
2023-05-12T16:19:17.314Z,39.3815
2023-05-12T16:20:19.248Z,39.3612
2023-05-12T16:21:21.170Z,39.3014
2023-05-12T16:22:23.090Z,39.3483
2023-05-12T16:23:25.001Z,39.2883
2023-05-12T16:24:26.911Z,39.2052
2023-05-12T16:25:28.844Z,39.2640
2023-05-12T16:26:30.768Z,39.2583
2023-05-12T16:27:32.681Z,39.0658
2023-05-12T16:28:34.609Z,39.0816
2023-05-12T16:29:36.534Z,39.2197
2023-05-12T16:30:38.458Z,39.1456
2023-05-12T16:31:40.402Z,39.0373
2023-05-12T16:32:42.334Z,39.0090
2023-05-12T16:33:44.217Z,39.1103
2023-05-12T16:34:46.124Z,39.0987
2023-05-12T16:35:48.044Z,39.2809
2023-05-12T16:36:49.964Z,39.3150
2023-05-12T16:37:51.898Z,39.2737
2023-05-12T16:38:53.836Z,39.2875
2023-05-12T16:39:55.728Z,39.2266
2023-05-12T16:40:57.657Z,39.3284
2023-05-12T16:41:59.574Z,39.3025
2023-05-12T16:43:01.505Z,39.4291
2023-05-12T16:44:03.428Z,39.3548
2023-05-12T16:45:05.360Z,39.4452
2023-05-12T16:46:07.281Z,39.5699
2023-05-12T16:47:09.186Z,39.4008
2023-05-12T16:48:11.121Z,39.2004
2023-05-12T16:49:13.039Z,39.2408
2023-05-12T16:50:14.959Z,39.1778
2023-05-12T16:51:16.877Z,39.2455
2023-05-12T16:52:18.792Z,39.1755
2023-05-12T16:53:20.712Z,39.1496
2023-05-12T16:54:22.798Z,39.3275
2023-05-12T16:55:24.538Z,39.2126
2023-05-12T16:56:26.512Z,39.1814
2023-05-12T16:57:28.396Z,39.1600
2023-05-12T16:58:30.316Z,39.2790
2023-05-12T16:59:32.240Z,39.2218
2023-05-12T17:00:34.140Z,39.2532
2023-05-12T17:01:36.169Z,39.3585
2023-05-12T17:02:38.058Z,39.4126
2023-05-12T17:03:40.030Z,39.4468
2023-05-12T17:04:41.808Z,39.4344
2023-05-12T17:05:43.730Z,39.2448
2023-05-12T17:06:45.654Z,39.1808
2023-05-12T17:07:47.622Z,39.1983
2023-05-12T17:08:49.518Z,39.1913
2023-05-12T17:09:51.426Z,39.2074
2023-05-12T17:10:53.342Z,39.4063
2023-05-12T17:11:55.251Z,39.4224
2023-05-12T17:12:57.185Z,39.2976
2023-05-12T17:13:59.119Z,39.1924
2023-05-12T17:15:07.638Z,39.3000
2023-05-12T17:16:02.972Z,39.1930
2023-05-12T17:17:04.886Z,39.0723
2023-05-12T17:18:06.884Z,39.0059
2023-05-12T17:20:10.616Z,39.0852
2023-05-12T17:21:12.542Z,39.1233
2023-05-12T17:22:14.466Z,39.2602
2023-05-12T17:23:16.382Z,39.4568
2023-05-12T17:24:18.294Z,39.3218
2023-05-12T17:25:20.426Z,39.3013
2023-05-12T17:26:22.143Z,39.4497
2023-05-12T17:27:24.067Z,39.3538
2023-05-12T17:28:25.982Z,39.3854
2023-05-12T17:29:27.886Z,39.4157
2023-05-12T17:30:29.804Z,39.4186
2023-05-12T17:31:31.790Z,39.4407
2023-05-12T17:32:33.726Z,39.4123
2023-05-12T17:33:35.578Z,39.2981
2023-05-12T17:34:37.496Z,39.2493
2023-05-12T17:35:39.416Z,39.2227
2023-05-12T17:36:41.324Z,39.3237
2023-05-12T17:37:43.281Z,39.3622
2023-05-12T17:38:45.183Z,39.2274
2023-05-12T17:39:47.084Z,39.2432
2023-05-12T17:40:49.012Z,39.1646
2023-05-12T17:41:50.933Z,39.0926
2023-05-12T17:42:52.966Z,39.0424
2023-05-12T17:43:54.770Z,38.9965
2023-05-12T17:44:56.699Z,38.9415
2023-05-12T17:45:58.599Z,38.9888
2023-05-12T17:47:00.542Z,38.9679
2023-05-12T17:48:02.517Z,38.9573
2023-05-12T17:49:04.371Z,38.9569
2023-05-12T17:50:06.295Z,38.8969
2023-05-12T17:51:08.198Z,38.9761
2023-05-12T17:52:10.117Z,38.8655
2023-05-12T17:53:12.033Z,38.8249
2023-05-12T17:54:13.954Z,38.8020
2023-05-12T17:55:15.873Z,38.7584
2023-05-12T17:56:17.809Z,38.7778
2023-05-12T17:57:19.704Z,38.8097
2023-05-12T17:58:21.628Z,38.6972
2023-05-12T17:59:23.551Z,38.6112
2023-05-12T18:00:25.462Z,38.7422
2023-05-12T18:01:27.469Z,38.8832
2023-05-12T18:02:29.452Z,38.7978
2023-05-12T18:03:31.266Z,38.7191
2023-05-12T18:04:33.153Z,38.6944
2023-05-12T18:05:36.506Z,38.7070
2023-05-12T18:06:36.989Z,38.6612
2023-05-12T18:07:38.908Z,38.6104
2023-05-12T18:08:40.834Z,38.6011
2023-05-12T18:09:42.730Z,38.5990
2023-05-12T18:10:44.663Z,38.5722
2023-05-12T18:11:46.587Z,38.5666
2023-05-12T18:12:48.511Z,38.5457
2023-05-12T18:13:50.403Z,38.6067
2023-05-12T18:14:52.337Z,38.8015
2023-05-12T18:15:54.266Z,38.8118
2023-05-12T18:16:56.230Z,38.7851
2023-05-12T18:17:58.118Z,38.8089
2023-05-12T18:19:00.014Z,38.7552
2023-05-12T18:20:01.920Z,38.7097
2023-05-12T18:21:03.857Z,38.7263
2023-05-12T18:22:05.746Z,38.7378
2023-05-12T18:23:07.685Z,38.8026
2023-05-12T18:24:09.576Z,38.7738
2023-05-12T18:25:11.508Z,38.8655
2023-05-12T18:26:13.464Z,38.9167
2023-05-12T18:27:15.362Z,38.9004
2023-05-12T18:28:17.254Z,39.0112
2023-05-12T18:29:19.170Z,39.0926
2023-05-12T18:30:21.113Z,39.1245
2023-05-12T18:31:23.046Z,39.0469
2023-05-12T18:32:26.312Z,39.0373
2023-05-12T18:33:26.857Z,39.3828
2023-05-12T18:34:28.754Z,39.3075
2023-05-12T18:35:30.676Z,39.1706
2023-05-12T18:36:32.620Z,39.1477
2023-05-12T18:37:34.522Z,39.1610
2023-05-12T18:38:36.454Z,39.2635
2023-05-12T18:39:38.372Z,39.2440
2023-05-12T18:40:40.270Z,39.2305
2023-05-12T18:41:42.180Z,39.2375
2023-05-12T18:42:44.158Z,39.2874
2023-05-12T18:43:46.048Z,39.3837
2023-05-12T18:44:47.943Z,39.4659
2023-05-12T18:45:49.871Z,39.4040
2023-05-12T18:46:51.839Z,39.5555
2023-05-12T18:47:53.716Z,39.4412
2023-05-12T18:48:55.646Z,39.3052
2023-05-12T18:49:57.555Z,39.1851
2023-05-12T18:50:59.463Z,39.1318
2023-05-12T18:52:01.399Z,39.2115
2023-05-12T18:53:03.320Z,39.2210
2023-05-12T18:54:05.235Z,39.3253
2023-05-12T18:55:07.176Z,39.4630
2023-05-12T18:56:09.064Z,39.3975
2023-05-12T18:57:10.993Z,39.3603
2023-05-12T18:58:12.898Z,39.3724
2023-05-12T18:59:14.838Z,39.2899
2023-05-12T19:00:16.758Z,39.3375
2023-05-12T19:01:18.738Z,39.4246
2023-05-12T19:02:20.600Z,39.4001
2023-05-12T19:03:22.503Z,39.2940
2023-05-12T19:04:24.431Z,39.3916
2023-05-12T19:05:26.387Z,39.4607
2023-05-12T19:06:28.281Z,39.4984
2023-05-12T19:07:30.216Z,39.5848
2023-05-12T19:08:32.103Z,39.5507
2023-05-12T19:09:34.027Z,39.5405
2023-05-12T19:10:38.611Z,39.5911
2023-05-12T19:11:37.874Z,39.4657
2023-05-12T19:12:39.805Z,39.4029
2023-05-12T19:13:41.718Z,39.4043
2023-05-12T19:14:43.629Z,39.4163
2023-05-12T19:15:45.596Z,39.5047
2023-05-12T19:16:47.544Z,39.6574
2023-05-12T19:17:49.420Z,39.7837
2023-05-12T19:18:51.400Z,39.6948
2023-05-12T19:19:53.235Z,39.5948
2023-05-12T19:20:55.139Z,39.5385
2023-05-12T19:21:57.060Z,39.6345
2023-05-12T19:22:58.998Z,39.6628
2023-05-12T19:24:00.905Z,39.5669
2023-05-12T19:25:02.825Z,39.5970
2023-05-12T19:26:04.724Z,39.6034
2023-05-12T19:27:06.640Z,39.7172
2023-05-12T19:28:08.607Z,39.7462
2023-05-12T19:29:10.514Z,39.6755
2023-05-12T19:30:12.415Z,39.8002
2023-05-12T19:31:14.323Z,39.8550
2023-05-12T19:32:16.339Z,39.7836
2023-05-12T19:33:18.199Z,39.8198
2023-05-12T19:34:20.100Z,39.9450
2023-05-12T19:35:22.205Z,40.0134
2023-05-12T19:36:23.925Z,40.0135
2023-05-12T19:37:25.849Z,40.0387
2023-05-12T19:38:27.741Z,40.3229
2023-05-12T19:39:29.677Z,40.2836
2023-05-12T19:40:31.711Z,40.2832
2023-05-12T19:41:33.510Z,40.2001
2023-05-12T19:42:35.414Z,40.2403
2023-05-12T19:43:37.337Z,40.3862
2023-05-12T19:44:39.285Z,40.4709
2023-05-12T19:45:41.200Z,40.4362
2023-05-12T19:46:43.103Z,40.4445
2023-05-12T19:47:45.020Z,40.5297
2023-05-12T19:48:46.922Z,40.4035
2023-05-12T19:49:48.854Z,40.4018
2023-05-12T19:50:50.786Z,40.4459
2023-05-12T19:51:52.689Z,40.4954
2023-05-12T19:52:54.606Z,40.4237
2023-05-12T19:53:56.605Z,40.4176
2023-05-12T19:54:58.511Z,40.5222
2023-05-12T19:56:00.456Z,40.6269
2023-05-12T19:57:02.385Z,40.5969
2023-05-12T19:58:04.291Z,40.5413
2023-05-12T19:59:06.207Z,40.5771
2023-05-12T20:00:08.120Z,40.6442
2023-05-12T20:01:10.054Z,40.6531
2023-05-12T20:02:11.970Z,40.6198
2023-05-12T20:03:13.918Z,40.5638
2023-05-12T20:04:15.790Z,40.6043
2023-05-12T20:05:17.765Z,40.6587
2023-05-12T20:06:19.621Z,40.6818
2023-05-12T20:07:21.548Z,40.5622
2023-05-12T20:08:23.475Z,40.5759
2023-05-12T20:09:25.372Z,40.5956
2023-05-12T20:10:27.302Z,40.5770
2023-05-12T20:11:29.200Z,40.5942
2023-05-12T20:12:31.140Z,40.7591
2023-05-12T20:13:33.056Z,40.8098
2023-05-12T20:14:34.978Z,40.8194
2023-05-12T20:15:36.874Z,40.6635
2023-05-12T20:16:38.820Z,40.7111
2023-05-12T20:17:40.803Z,40.6525
2023-05-12T20:18:42.676Z,40.6666
2023-05-12T20:19:44.556Z,40.7230
2023-05-12T20:20:46.461Z,40.7995
2023-05-12T20:21:48.382Z,40.7566
2023-05-12T20:22:50.308Z,40.6158
2023-05-12T20:23:52.230Z,40.6739
2023-05-12T20:24:54.149Z,40.6773
2023-05-12T20:25:56.082Z,40.6852
2023-05-12T20:26:57.966Z,40.6676
2023-05-12T20:27:59.919Z,40.6114
2023-05-12T20:29:01.835Z,40.7581
2023-05-12T20:30:03.736Z,40.8837
2023-05-12T20:31:05.778Z,40.8260
2023-05-12T20:32:07.570Z,40.7727
2023-05-12T20:33:09.500Z,40.7824
2023-05-12T20:34:11.405Z,40.6994
2023-05-12T20:35:13.327Z,40.6436
2023-05-12T20:36:15.224Z,40.7743
2023-05-12T20:37:17.156Z,40.8208
2023-05-12T20:38:19.066Z,40.8315
2023-05-12T20:39:20.983Z,40.7917
2023-05-12T20:40:22.903Z,40.7422
2023-05-12T20:41:24.806Z,40.7122
2023-05-12T20:42:26.733Z,40.7773
2023-05-12T20:43:28.650Z,40.8904
2023-05-12T20:44:30.571Z,40.9187
2023-05-12T20:45:32.473Z,40.9255
2023-05-12T20:46:36.437Z,40.8597
2023-05-12T20:47:36.456Z,40.8184
2023-05-12T20:48:38.229Z,40.8054
2023-05-12T20:49:40.149Z,40.7928
2023-05-12T20:50:42.084Z,40.8414
2023-05-12T20:51:43.967Z,40.7959
2023-05-12T20:52:45.904Z,40.7990
2023-05-12T20:53:47.794Z,40.8646
2023-05-12T20:54:49.718Z,40.9789
2023-05-12T20:55:51.633Z,40.9110
2023-05-12T20:56:53.562Z,40.9013
2023-05-12T20:57:55.471Z,40.9844
2023-05-12T20:58:57.377Z,40.8814
2023-05-12T20:59:59.298Z,40.9292
2023-05-12T21:01:01.229Z,40.9331
2023-05-12T21:02:03.207Z,40.9454
2023-05-12T21:03:12.216Z,40.8664
2023-05-12T21:04:16.527Z,40.9628
2023-05-12T21:05:18.620Z,40.8843
2023-05-12T21:06:20.348Z,40.9741
2023-05-12T21:07:22.262Z,40.9013
2023-05-12T21:08:24.159Z,40.9890
2023-05-12T21:09:26.104Z,41.0652
2023-05-12T21:10:28.002Z,41.0952
2023-05-12T21:11:29.905Z,40.9435
2023-05-12T21:12:31.835Z,40.9157
2023-05-12T21:13:33.772Z,41.0371
2023-05-12T21:14:35.670Z,41.1028
2023-05-12T21:15:37.581Z,41.0334
2023-05-12T21:16:39.634Z,40.9675
2023-05-12T21:17:41.566Z,40.9738
2023-05-12T21:18:43.385Z,40.9962
2023-05-12T21:19:45.276Z,40.9641
2023-05-12T21:20:47.240Z,41.0377
2023-05-12T21:21:49.097Z,40.9728
2023-05-12T21:22:51.025Z,41.0766
2023-05-12T21:23:52.996Z,41.1444
2023-05-12T21:24:54.850Z,41.1301
2023-05-12T21:25:56.770Z,41.1069
2023-05-12T21:26:58.704Z,41.0752
2023-05-12T21:28:00.605Z,41.1107
2023-05-12T21:29:02.572Z,41.0636
2023-05-12T21:30:04.457Z,41.1312
2023-05-12T21:31:06.355Z,41.2058
2023-05-12T21:32:08.599Z,41.1897
2023-05-12T21:33:10.286Z,41.1217
2023-05-12T21:34:12.178Z,41.1015
2023-05-12T21:35:14.033Z,41.0678
2023-05-12T21:36:15.965Z,41.1141
2023-05-12T21:37:17.869Z,41.2295
2023-05-12T21:38:19.804Z,41.1965
2023-05-12T21:39:21.728Z,41.1280
2023-05-12T21:40:23.706Z,41.2187
2023-05-12T21:41:25.548Z,41.2086
2023-05-12T21:42:27.496Z,41.2092
2023-05-12T21:43:29.406Z,41.1972
2023-05-12T21:44:31.332Z,41.1514
2023-05-12T21:45:33.244Z,41.1425
2023-05-12T21:46:35.271Z,41.1930
2023-05-12T21:47:37.114Z,41.1296
2023-05-12T21:48:38.984Z,41.2269
2023-05-12T21:49:40.918Z,41.2456
2023-05-12T21:50:42.835Z,41.0674
2023-05-12T21:51:44.751Z,41.2906
2023-05-12T21:52:46.705Z,41.2282
2023-05-12T21:53:48.593Z,41.1664
2023-05-12T21:54:50.525Z,41.1408
2023-05-12T21:55:52.428Z,41.0498
2023-05-12T21:56:54.346Z,41.1400
2023-05-12T21:57:56.253Z,41.1483
2023-05-12T21:58:58.218Z,41.1598
2023-05-12T22:00:00.126Z,41.2318
2023-05-12T22:01:02.021Z,41.3151
2023-05-12T22:02:03.948Z,41.3280
2023-05-12T22:03:05.896Z,41.3176
2023-05-12T22:04:07.817Z,41.2859
2023-05-12T22:05:09.758Z,41.2449
2023-05-12T22:06:11.623Z,41.1975
2023-05-12T22:07:13.517Z,41.2003
2023-05-12T22:08:15.447Z,41.3091
2023-05-12T22:09:17.361Z,41.2213
2023-05-12T22:10:19.452Z,41.2301
2023-05-12T22:11:21.229Z,41.3218
2023-05-12T22:12:23.116Z,41.2120
2023-05-12T22:13:25.023Z,41.0875
2023-05-12T22:14:26.936Z,41.0685
2023-05-12T22:15:28.870Z,41.1793
2023-05-12T22:16:40.680Z,41.2080
2023-05-12T22:17:32.750Z,41.3499
2023-05-12T22:18:34.679Z,41.4007
2023-05-12T22:19:36.536Z,41.3768
2023-05-12T22:20:38.453Z,41.3752
2023-05-12T22:21:40.379Z,41.4409
2023-05-12T22:22:42.339Z,41.3159
2023-05-12T22:23:44.220Z,41.4525
2023-05-12T22:24:46.134Z,41.3325
2023-05-12T22:25:48.032Z,41.1984
2023-05-12T22:26:49.970Z,41.1349
2023-05-12T22:27:51.871Z,41.2335
2023-05-12T22:28:53.836Z,41.3606
2023-05-12T22:29:55.721Z,41.2751
2023-05-12T22:30:57.665Z,41.3036
2023-05-12T22:31:59.551Z,41.2692
2023-05-12T22:33:01.584Z,41.2597
2023-05-12T22:34:03.384Z,41.2843
2023-05-12T22:35:05.339Z,41.2292
2023-05-12T22:36:07.243Z,41.2960
2023-05-12T22:37:09.146Z,41.2602
2023-05-12T22:38:11.094Z,41.2734
2023-05-12T22:39:13.001Z,41.2213
2023-05-12T22:40:14.905Z,41.3382
2023-05-12T22:41:16.825Z,41.4525
2023-05-12T22:42:18.763Z,41.3998
2023-05-12T22:43:20.659Z,41.4334
2023-05-12T22:44:22.596Z,41.3746
2023-05-12T22:45:24.520Z,41.3377
2023-05-12T22:46:26.480Z,41.4045
2023-05-12T22:47:28.348Z,41.2738
2023-05-12T22:48:32.099Z,41.4071
2023-05-12T22:49:32.191Z,41.4336
2023-05-12T22:50:34.098Z,41.5909
2023-05-12T22:51:36.025Z,41.4589
2023-05-12T22:52:37.944Z,41.4460
2023-05-12T22:53:39.864Z,41.4518
2023-05-12T22:54:41.781Z,41.3807
2023-05-12T22:55:43.701Z,41.2994
2023-05-12T22:56:45.629Z,41.1971
2023-05-12T22:57:47.538Z,41.3158
2023-05-12T22:58:49.470Z,41.4166
2023-05-12T22:59:51.371Z,41.4265
2023-05-12T23:00:53.330Z,41.2354
2023-05-12T23:01:55.221Z,41.3064
2023-05-12T23:02:57.191Z,41.2833
2023-05-12T23:03:59.068Z,41.4771
2023-05-12T23:05:00.963Z,41.5594
2023-05-12T23:06:02.908Z,41.4778
2023-05-12T23:07:05.903Z,41.4491
2023-05-12T23:08:06.764Z,41.4679
2023-05-12T23:09:08.635Z,41.7107
2023-05-12T23:10:10.578Z,41.7507
2023-05-12T23:11:12.491Z,41.7172
2023-05-12T23:12:14.404Z,41.7777
2023-05-12T23:13:16.370Z,41.6263
2023-05-12T23:14:18.288Z,41.5166
2023-05-12T23:15:20.171Z,41.6750
2023-05-12T23:16:22.093Z,41.6591
2023-05-12T23:17:23.994Z,41.6626
2023-05-12T23:18:25.946Z,41.6855
2023-05-12T23:19:27.837Z,41.5144
2023-05-12T23:20:29.752Z,41.4993
2023-05-12T23:21:31.694Z,41.5123
2023-05-12T23:22:33.605Z,41.4900
2023-05-12T23:23:35.520Z,41.5250
2023-05-12T23:24:37.444Z,41.3841
2023-05-12T23:25:39.371Z,41.4784
2023-05-12T23:26:41.262Z,41.6145
2023-05-12T23:27:43.199Z,41.5402
2023-05-12T23:28:45.473Z,41.4710
2023-05-12T23:29:47.024Z,41.3880
2023-05-12T23:30:48.949Z,41.3220
2023-05-12T23:31:50.930Z,41.3738
2023-05-12T23:32:52.950Z,41.4159
2023-05-12T23:33:54.782Z,41.3660
2023-05-12T23:34:56.632Z,41.3697
2023-05-12T23:35:58.579Z,41.4559
2023-05-12T23:37:00.462Z,41.4325
2023-05-12T23:38:02.398Z,41.4920
2023-05-12T23:39:04.312Z,41.5252
2023-05-12T23:40:06.213Z,41.6223
2023-05-12T23:41:08.142Z,41.5285
2023-05-12T23:42:10.066Z,41.4886
2023-05-12T23:43:11.969Z,41.5961
2023-05-12T23:44:13.898Z,41.5065
2023-05-12T23:45:15.844Z,41.6047
2023-05-12T23:46:17.786Z,41.5692
2023-05-12T23:47:19.650Z,41.4826
2023-05-12T23:48:21.580Z,41.5149
2023-05-12T23:49:23.529Z,41.6386
2023-05-12T23:50:25.412Z,41.5501
2023-05-12T23:51:27.348Z,41.5860
2023-05-12T23:52:29.257Z,41.6381
2023-05-12T23:53:31.209Z,41.6160
2023-05-12T23:54:33.107Z,41.6305
2023-05-12T23:55:35.017Z,41.6178
2023-05-12T23:56:36.973Z,41.5731
2023-05-12T23:57:38.933Z,41.5140
2023-05-12T23:58:40.854Z,41.6464
2023-05-12T23:59:42.754Z,41.7973
